Airfield :
LOGIN :

Register | Disclaimer

   EN    FR    IT 

 










Legend :    VFR   Marginal VFR   IFR   Intensive IFR   Very Intensive IFR
Visi :
Ceiling :
>= 8 km
>= 3000ft
5 to 8 km
1000 to 3000 ft
1500m to 5 km
500 to 1000 ft
800 to 1500m
200 to 500 ft
< 800m
< 200 ft
Symbols :   Thunderstorms  Fog  Heavy snow  Heavy precipitations  Wind > 20 kt
SIGMETs :     Misc.  Thunderstorms  Icing  Turbulence  Mountain Waves  Volcanic Ashes






- Airport Elevation : 423 ft
- IATA code : PIS


LFBI - Poitiers

CURRENT METAR :
  • 211730Z AUTO 24011KT 9999 SCT017/// BKN064/// BKN076/// ///CB 14/11 Q1016 TEMPO 4000 SHRA

EXPIRED METARs :
  • 211700Z AUTO 24014KT 9999 FEW017/// BKN058/// BKN070/// ///TCU 15/11 Q1016 TEMPO 4000 SHRA BECMG VRB03KT
  • 211630Z AUTO 23013KT 9999 FEW036 15/11 Q1016 TEMPO 4000 SHRA BKN020TCU BECMG VRB03KT
  • 211600Z AUTO 24015KT 9999 FEW039/// SCT062/// BKN078/// ///TCU 15/11 Q1016 TEMPO 4000 SHRA BKN015CB BECMG 24015G25KT
  • 211530Z AUTO 25015KT 9999 FEW039/// BKN050/// BKN076/// ///TCU 16/10 Q1016 TEMPO 4000 SHRA BKN015CB BECMG VRB03KT
  • 211500Z AUTO 24017KT 210V270 9999 FEW025/// SCT033/// BKN064/// ///TCU 17/10 Q1016 TEMPO 2000 SHRA BKN015CB BECMG 24015G25KT

TAF TAF LFBI
Valid from the 21 at 18:00 until the 22 at 18:00 UTC


211700Z 2118/2218 27010KT 9999 SCT030
TEMPO 2118/2124 4000 SHRA BKN020TCU
BECMG 2118/2120 VRB03KT
PROB30
TEMPO 2203/2208 1500 BR BKN002
BECMG 2208/2210 03010KT CAVOK
BECMG 2216/2218 VRB03KT



MET'MAP, your aeronautical weather chart ! - Copyright ORBIFLY December 2007 - Disclaimer

ORBIFLY MET'MAP TEAM :

Programming & Development : Alexandra Zaïnal
Concept & original design : Baudouin d'Aumeries
Assistance for programming : Marc-Olivier Méhu
Technical & hardware support : Manuel Goepfert

Contact : metmap@orbifly.com




SOURCES & CREDITS :

   NOAA